Time;durP1;ratioP1;P1;durP2;ratioP2;P2;SDS_P1;SDS_P2;PMS_P1;PMS_P2;Temp;Humidity;BMP_temperature;BMP_pressure;BME280_temperature;BME280_humidity;BME280_pressure;Samples;Min_cycle;Max_cycle;Signal;HPM_P1;HPM_P2
2021/06/11 00:01:51;;;;;;;20.15;16.20;;;17.50;99.90;;;;;;5023273;28;20061;-64
2021/06/11 00:04:17;;;;;;;18.52;16.65;;;17.40;99.90;;;;;;5023493;28;20077;-64
2021/06/11 00:06:43;;;;;;;17.73;16.00;;;17.40;99.90;;;;;;5024371;28;20095;-64
2021/06/11 00:09:12;;;;;;;22.17;19.80;;;17.50;99.90;;;;;;5024270;28;20049;-64
2021/06/11 00:11:38;;;;;;;21.73;17.23;;;17.50;99.90;;;;;;5023908;28;20791;-64
2021/06/11 00:14:04;;;;;;;18.80;17.00;;;17.40;99.90;;;;;;5023716;28;20048;-64
2021/06/11 00:16:30;;;;;;;20.15;18.05;;;17.40;99.90;;;;;;5024214;28;20451;-64
2021/06/11 00:18:56;;;;;;;20.38;16.13;;;17.30;99.90;;;;;;5024799;28;20041;-64
2021/06/11 00:21:21;;;;;;;19.48;16.73;;;17.30;99.90;;;;;;5024078;28;20037;-64
2021/06/11 00:23:47;;;;;;;19.38;17.02;;;17.30;99.90;;;;;;5023901;28;20171;-64
2021/06/11 00:26:13;;;;;;;13.65;12.27;;;17.30;99.90;;;;;;5023536;28;20042;-64
2021/06/11 00:28:39;;;;;;;11.27;10.27;;;17.20;99.90;;;;;;5024364;28;20037;-64
2021/06/11 00:31:04;;;;;;;17.60;15.75;;;17.20;99.90;;;;;;5022870;28;20045;-64
2021/06/11 00:33:30;;;;;;;15.48;14.07;;;17.20;99.90;;;;;;5023077;28;20057;-64
2021/06/11 00:35:55;;;;;;;16.38;14.73;;;17.20;99.90;;;;;;5023892;28;20480;-64
2021/06/11 00:38:21;;;;;;;14.50;13.00;;;17.10;99.90;;;;;;5024359;28;20369;-64
2021/06/11 00:40:47;;;;;;;19.35;17.50;;;17.10;99.90;;;;;;5023400;28;20676;-64
2021/06/11 00:43:13;;;;;;;20.85;18.50;;;17.10;99.90;;;;;;5023819;28;20057;-64
2021/06/11 00:45:41;;;;;;;20.63;18.42;;;17.10;99.90;;;;;;5023860;28;20041;-64
2021/06/11 00:48:08;;;;;;;19.73;17.75;;;17.10;99.90;;;;;;5023860;28;20048;-64
2021/06/11 00:50:35;;;;;;;18.83;17.02;;;17.10;99.90;;;;;;5024703;28;20120;-64
2021/06/11 00:53:16;;;;;;;13.95;12.48;;;17.10;99.90;;;;;;5023579;28;20037;-64
2021/06/11 00:55:45;;;;;;;12.55;11.18;;;17.10;99.90;;;;;;5023349;28;20466;-64
2021/06/11 00:58:13;;;;;;;14.20;12.80;;;17.00;99.90;;;;;;5023429;28;20103;-64
2021/06/11 01:00:39;;;;;;;13.60;12.25;;;17.00;99.90;;;;;;5023843;28;20538;-63
2021/06/11 01:03:06;;;;;;;16.33;14.68;;;17.00;99.90;;;;;;5023226;28;20049;-64
2021/06/11 01:05:32;;;;;;;18.08;16.35;;;17.00;99.90;;;;;;5023240;28;20115;-64
2021/06/11 01:08:01;;;;;;;17.15;15.45;;;17.00;99.90;;;;;;5022932;28;20407;-64
2021/06/11 01:10:27;;;;;;;15.07;13.57;;;16.90;99.90;;;;;;5026013;28;20033;-64
2021/06/11 01:12:56;;;;;;;14.98;13.57;;;16.80;99.90;;;;;;5026759;28;20034;-64
2021/06/11 01:15:22;;;;;;;9.60;8.20;;;16.80;99.90;;;;;;5025825;28;20033;-64
2021/06/11 01:17:49;;;;;;;13.95;12.57;;;16.80;99.90;;;;;;5025927;28;20128;-64
2021/06/11 01:20:17;;;;;;;13.30;11.88;;;16.80;99.90;;;;;;5026204;28;20119;-64
2021/06/11 01:23:01;;;;;;;20.35;14.20;;;16.70;99.90;;;;;;5027226;28;20503;-64
2021/06/11 01:25:44;;;;;;;14.98;13.48;;;16.70;99.90;;;;;;5026450;28;20581;-64
2021/06/11 01:28:11;;;;;;;14.30;13.00;;;16.70;99.90;;;;;;5025972;28;20037;-64
2021/06/11 01:30:40;;;;;;;16.85;15.05;;;16.60;99.90;;;;;;5025594;28;20897;-64
2021/06/11 01:33:07;;;;;;;15.48;13.10;;;16.60;99.90;;;;;;5026095;28;20388;-64
2021/06/11 01:35:44;;;;;;;14.90;13.40;;;16.50;99.90;;;;;;5027479;28;20080;-64
2021/06/11 01:38:16;;;;;;;17.30;14.95;;;16.50;99.90;;;;;;5025794;28;20067;-64
2021/06/11 01:40:43;;;;;;;19.15;17.20;;;16.50;99.90;;;;;;5027579;28;20049;-64
2021/06/11 01:43:10;;;;;;;17.42;15.77;;;16.50;99.90;;;;;;5025683;28;20042;-64
2021/06/11 01:45:37;;;;;;;18.80;16.90;;;16.50;99.90;;;;;;5027485;28;20048;-64
2021/06/11 01:48:03;;;;;;;19.83;17.60;;;16.40;99.90;;;;;;5025801;28;20050;-64
2021/06/11 01:50:41;;;;;;;17.23;15.63;;;16.40;99.90;;;;;;5027184;28;20041;-64
2021/06/11 01:53:11;;;;;;;19.27;17.05;;;16.40;99.90;;;;;;5025911;28;20037;-64
2021/06/11 01:55:39;;;;;;;19.42;16.95;;;16.40;99.90;;;;;;5026522;28;20034;-64
2021/06/11 01:58:09;;;;;;;15.77;14.15;;;16.30;99.90;;;;;;5026425;28;20411;-64
2021/06/11 02:00:34;;;;;;;17.40;15.70;;;16.30;99.90;;;;;;5027203;28;20480;-64
2021/06/11 02:03:02;;;;;;;16.48;14.95;;;16.30;99.90;;;;;;5024474;28;20044;-64
2021/06/11 02:05:31;;;;;;;17.15;15.48;;;16.30;99.90;;;;;;5024041;28;20033;-64
2021/06/11 02:07:57;;;;;;;19.63;17.55;;;16.30;99.90;;;;;;5026753;28;20484;-64
2021/06/11 02:10:25;;;;;;;19.77;17.65;;;16.30;99.90;;;;;;5026125;28;20516;-64
2021/06/11 02:12:53;;;;;;;22.13;16.05;;;16.20;99.90;;;;;;5026387;28;20518;-64
2021/06/11 02:15:19;;;;;;;16.17;14.48;;;16.20;99.90;;;;;;5053879;28;20061;-64
2021/06/11 02:17:50;;;;;;;13.95;12.50;;;16.10;99.90;;;;;;5029826;28;20037;-64
2021/06/11 02:20:20;;;;;;;15.43;13.93;;;16.10;99.90;;;;;;5030312;28;20149;-64
2021/06/11 02:22:46;;;;;;;15.73;12.98;;;16.10;99.90;;;;;;5030319;28;20134;-64
2021/06/11 02:25:15;;;;;;;15.90;14.20;;;16.10;99.90;;;;;;5029083;28;20111;-64
2021/06/11 02:27:42;;;;;;;15.27;13.45;;;16.10;99.90;;;;;;5030075;28;20049;-64
2021/06/11 02:30:11;;;;;;;15.32;13.82;;;16.00;99.90;;;;;;5029598;28;20041;-64
2021/06/11 02:32:38;;;;;;;16.63;14.95;;;16.00;99.90;;;;;;5028800;28;20040;-64
2021/06/11 02:35:06;;;;;;;18.30;16.48;;;16.00;99.90;;;;;;5028616;28;20045;-64
2021/06/11 02:37:34;;;;;;;13.70;12.05;;;16.00;99.90;;;;;;5028695;28;20773;-64
2021/06/11 02:40:01;;;;;;;11.98;10.88;;;15.90;99.90;;;;;;5029269;28;20045;-64
2021/06/11 02:42:29;;;;;;;14.38;12.98;;;15.90;99.90;;;;;;5029415;28;20041;-64
2021/06/11 02:44:58;;;;;;;15.32;13.95;;;15.90;99.90;;;;;;5030382;28;20037;-64
2021/06/11 02:47:34;;;;;;;11.00;9.93;;;15.80;99.90;;;;;;5029828;28;20036;-64
2021/06/11 02:50:07;;;;;;;12.77;11.55;;;15.80;99.90;;;;;;5028765;28;20518;-64
2021/06/11 02:52:35;;;;;;;14.07;12.63;;;15.90;99.90;;;;;;5029934;28;20037;-64
2021/06/11 02:55:04;;;;;;;15.95;13.75;;;15.80;99.90;;;;;;5029725;28;20033;-64
2021/06/11 02:57:52;;;;;;;15.95;14.38;;;15.80;99.90;;;;;;5029688;28;20037;-64
2021/06/11 03:00:20;;;;;;;12.68;11.60;;;15.80;99.90;;;;;;5029292;28;20033;-64
2021/06/11 03:02:52;;;;;;;11.10;10.00;;;15.80;99.90;;;;;;5029723;28;20041;-64
2021/06/11 03:05:20;;;;;;;16.02;12.10;;;15.80;99.90;;;;;;5027569;28;20079;-64
2021/06/11 03:07:47;;;;;;;15.30;11.95;;;15.80;99.90;;;;;;5028243;28;20045;-64
2021/06/11 03:10:16;;;;;;;17.88;15.13;;;15.80;99.90;;;;;;5028937;28;20447;-64
2021/06/11 03:12:45;;;;;;;18.05;14.27;;;15.80;99.90;;;;;;5028680;28;20053;-64
2021/06/11 03:15:11;;;;;;;22.08;17.17;;;15.80;99.90;;;;;;5028808;28;20037;-64
2021/06/11 03:17:45;;;;;;;13.35;10.73;;;15.80;99.90;;;;;;5021891;28;20125;-64
2021/06/11 03:20:14;;;;;;;7.03;6.32;;;15.70;99.90;;;;;;5026152;28;20041;-64
2021/06/11 03:22:50;;;;;;;9.02;6.40;;;15.70;99.90;;;;;;5028674;28;20511;-64
2021/06/11 03:25:29;;;;;;;7.50;6.63;;;15.70;99.90;;;;;;5028103;28;20037;-64
2021/06/11 03:28:01;;;;;;;8.32;7.60;;;15.70;99.90;;;;;;5055490;28;20041;-64
2021/06/11 03:30:29;;;;;;;10.27;9.27;;;15.70;99.90;;;;;;5027812;28;20033;-64
2021/06/11 03:33:07;;;;;;;14.38;13.00;;;15.80;99.90;;;;;;5027233;28;20045;-64
2021/06/11 03:35:40;;;;;;;13.82;12.52;;;15.70;99.90;;;;;;5029205;28;20088;-64
2021/06/11 03:38:15;;;;;;;12.85;11.65;;;15.80;99.90;;;;;;5029044;28;20132;-64
2021/06/11 03:40:46;;;;;;;25.67;14.23;;;15.80;99.90;;;;;;5027049;28;20046;-64
2021/06/11 03:43:14;;;;;;;15.32;13.60;;;15.80;99.90;;;;;;5024768;28;20364;-64
2021/06/11 03:45:41;;;;;;;14.93;13.52;;;15.80;99.90;;;;;;5027705;28;20112;-64
2021/06/11 03:48:10;;;;;;;15.15;13.75;;;15.80;99.90;;;;;;5027499;28;20399;-64
2021/06/11 03:50:38;;;;;;;16.27;14.77;;;15.80;99.90;;;;;;5028666;28;20041;-64
2021/06/11 03:53:05;;;;;;;16.48;14.88;;;15.80;99.90;;;;;;5027664;28;20042;-64
2021/06/11 03:55:39;;;;;;;13.77;12.57;;;15.90;99.90;;;;;;5027338;28;20060;-64
2021/06/11 03:58:11;;;;;;;13.60;12.40;;;15.90;99.90;;;;;;5027474;28;20037;-64
2021/06/11 04:00:41;;;;;;;11.27;10.27;;;15.90;99.90;;;;;;5027350;28;20127;-64
2021/06/11 04:03:07;;;;;;;12.93;11.82;;;16.00;99.90;;;;;;5024035;28;20050;-64
2021/06/11 04:05:34;;;;;;;15.38;13.98;;;16.00;99.90;;;;;;5024747;28;21076;-64
2021/06/11 04:08:13;;;;;;;15.45;14.00;;;16.10;99.90;;;;;;5023883;28;20092;-64
2021/06/11 04:10:53;;;;;;;13.70;12.27;;;16.20;99.90;;;;;;5023614;28;20746;-64
2021/06/11 04:13:48;;;;;;;15.48;14.07;;;16.30;99.90;;;;;;5023812;28;20411;-63
2021/06/11 04:16:23;;;;;;;16.27;14.25;;;16.40;99.90;;;;;;5024545;28;20060;-63
2021/06/11 04:18:51;;;;;;;21.48;15.23;;;16.40;99.90;;;;;;5023525;28;20404;-64
2021/06/11 04:21:23;;;;;;;17.92;16.25;;;16.40;99.90;;;;;;5023640;28;20065;-64
2021/06/11 04:23:51;;;;;;;17.17;15.35;;;16.50;99.90;;;;;;5023730;28;20045;-64
2021/06/11 04:26:24;;;;;;;16.73;14.45;;;16.50;99.90;;;;;;5023403;28;20684;-64
2021/06/11 04:28:51;;;;;;;20.38;17.08;;;16.50;99.90;;;;;;5023500;28;20104;-64
2021/06/11 04:31:17;;;;;;;23.48;20.75;;;16.60;99.90;;;;;;5023635;28;20138;-64
2021/06/11 04:33:43;;;;;;;33.10;23.33;;;16.60;99.90;;;;;;5023776;28;20045;-64
2021/06/11 04:36:11;;;;;;;35.67;25.92;;;16.70;99.90;;;;;;5022573;28;20045;-64
2021/06/11 04:38:59;;;;;;;31.20;25.25;;;16.80;99.90;;;;;;5022380;28;20045;-64
2021/06/11 04:41:26;;;;;;;26.05;21.35;;;17.00;99.90;;;;;;5021995;28;20041;-64
2021/06/11 04:43:53;;;;;;;25.15;19.50;;;17.10;99.90;;;;;;5021963;28;20077;-64
2021/06/11 04:46:21;;;;;;;22.38;20.08;;;17.40;99.90;;;;;;5022805;28;20040;-64
2021/06/11 04:48:47;;;;;;;20.95;18.95;;;17.60;99.90;;;;;;5023570;28;20629;-64
2021/06/11 04:51:13;;;;;;;18.13;16.42;;;18.00;99.90;;;;;;5026378;28;20047;-64
2021/06/11 04:53:39;;;;;;;18.35;15.77;;;18.70;99.90;;;;;;5023761;28;20392;-64
2021/06/11 04:56:07;;;;;;;18.35;14.98;;;19.50;99.90;;;;;;5025320;28;20064;-64
2021/06/11 04:58:39;;;;;;;17.85;16.20;;;20.60;99.90;;;;;;5026091;28;20037;-64
2021/06/11 05:01:05;;;;;;;16.80;15.07;;;21.50;97.10;;;;;;5022777;28;20037;-64
2021/06/11 05:03:32;;;;;;;15.88;14.13;;;22.00;96.00;;;;;;5026390;28;20064;-64
2021/06/11 05:05:58;;;;;;;17.30;14.68;;;22.30;95.70;;;;;;5025368;28;20063;-64
2021/06/11 05:08:23;;;;;;;17.13;15.43;;;22.30;95.50;;;;;;5024025;28;20484;-64
2021/06/11 05:10:50;;;;;;;19.23;16.08;;;22.30;95.70;;;;;;5024192;28;21182;-64
2021/06/11 05:13:16;;;;;;;18.70;15.00;;;22.20;96.10;;;;;;5025660;28;20076;-64
2021/06/11 05:15:42;;;;;;;20.60;14.43;;;22.20;96.50;;;;;;5024776;28;20133;-64
2021/06/11 05:18:08;;;;;;;17.33;15.55;;;22.20;96.40;;;;;;5025484;28;21002;-64
2021/06/11 05:20:35;;;;;;;16.15;14.55;;;22.30;96.80;;;;;;5026278;28;20030;-64
2021/06/11 05:23:05;;;;;;;16.92;15.32;;;22.30;97.10;;;;;;5026519;28;20038;-64
2021/06/11 05:25:34;;;;;;;20.05;18.08;;;22.40;97.20;;;;;;5026293;28;20045;-64
2021/06/11 05:28:03;;;;;;;20.73;18.63;;;22.60;96.90;;;;;;5027247;28;20046;-64
2021/06/11 05:30:29;;;;;;;21.45;18.85;;;22.80;96.30;;;;;;5026861;28;20037;-64
2021/06/11 05:32:58;;;;;;;21.33;19.10;;;22.90;95.20;;;;;;5025614;28;20033;-64
2021/06/11 05:35:27;;;;;;;22.00;19.67;;;23.00;95.30;;;;;;5026343;28;20133;-64
2021/06/11 05:37:52;;;;;;;22.65;18.98;;;23.20;95.20;;;;;;5027539;28;20037;-64
2021/06/11 05:40:18;;;;;;;22.30;19.70;;;23.40;95.30;;;;;;5024015;28;20407;-64
2021/06/11 05:42:45;;;;;;;25.52;22.50;;;23.60;95.10;;;;;;5025381;28;20443;-64
2021/06/11 05:45:11;;;;;;;27.08;23.50;;;23.80;93.60;;;;;;5024385;28;20056;-65
2021/06/11 05:47:39;;;;;;;25.75;22.95;;;23.90;93.30;;;;;;5022463;28;20055;-65
2021/06/11 05:50:06;;;;;;;25.60;23.17;;;24.00;93.60;;;;;;5017544;28;20033;-65
2021/06/11 05:52:35;;;;;;;29.17;24.80;;;24.20;93.60;;;;;;5019736;28;20042;-65
2021/06/11 05:55:05;;;;;;;26.98;24.17;;;24.40;93.10;;;;;;5020321;28;20499;-65
2021/06/11 05:57:35;;;;;;;28.90;25.23;;;24.50;92.90;;;;;;5020466;28;20044;-65
2021/06/11 06:00:06;;;;;;;29.33;25.58;;;24.60;92.30;;;;;;5019678;28;20049;-65
2021/06/11 06:02:32;;;;;;;26.00;23.33;;;24.80;92.30;;;;;;5021190;28;21015;-65
2021/06/11 06:04:58;;;;;;;29.00;21.73;;;24.90;92.30;;;;;;5021683;28;20033;-65
2021/06/11 06:07:24;;;;;;;29.00;21.63;;;25.10;91.40;;;;;;5020095;28;20538;-65
2021/06/11 06:09:51;;;;;;;24.25;20.17;;;25.10;90.50;;;;;;5019822;28;20049;-65
2021/06/11 06:12:18;;;;;;;24.83;20.80;;;25.20;90.70;;;;;;5021116;28;20064;-65
2021/06/11 06:14:44;;;;;;;20.20;16.88;;;25.20;90.40;;;;;;5021347;28;20029;-65
2021/06/11 06:17:16;;;;;;;17.77;15.88;;;25.20;89.90;;;;;;5018746;28;20088;-65
2021/06/11 06:19:43;;;;;;;17.33;15.52;;;25.20;89.20;;;;;;5022093;28;20707;-65
2021/06/11 06:22:11;;;;;;;18.23;15.70;;;25.10;88.90;;;;;;5021656;28;20033;-65
2021/06/11 06:24:37;;;;;;;16.10;13.65;;;25.10;88.20;;;;;;5020247;28;20045;-65
2021/06/11 06:27:04;;;;;;;17.48;13.93;;;25.10;88.50;;;;;;5021511;28;20072;-66
2021/06/11 06:29:31;;;;;;;15.57;13.93;;;25.10;89.00;;;;;;5020311;28;20041;-65
2021/06/11 06:31:58;;;;;;;15.73;14.18;;;25.20;89.00;;;;;;5022389;28;20045;-65
2021/06/11 06:34:25;;;;;;;14.52;13.13;;;25.20;87.10;;;;;;5019778;28;20029;-65
2021/06/11 06:36:52;;;;;;;14.30;12.82;;;25.30;87.80;;;;;;5021605;28;20048;-65
2021/06/11 06:39:19;;;;;;;12.77;11.57;;;25.40;89.10;;;;;;5020718;28;20041;-65
2021/06/11 06:41:45;;;;;;;12.38;11.15;;;25.60;89.30;;;;;;5022523;28;20078;-66
2021/06/11 06:44:13;;;;;;;15.10;13.43;;;25.90;89.00;;;;;;5020015;28;20065;-65
2021/06/11 06:46:47;;;;;;;13.88;11.95;;;25.90;87.10;;;;;;5020832;28;20040;-65
2021/06/11 06:49:16;;;;;;;12.32;11.02;;;26.10;86.70;;;;;;5019206;28;21788;-66
2021/06/11 06:51:42;;;;;;;14.32;13.02;;;26.20;87.20;;;;;;5021430;28;20491;-66
2021/06/11 06:54:08;;;;;;;29.95;12.93;;;26.40;85.70;;;;;;5021011;28;20033;-66
2021/06/11 06:56:33;;;;;;;13.70;12.35;;;26.50;85.40;;;;;;5017998;28;20196;-66
2021/06/11 06:59:00;;;;;;;12.75;11.45;;;26.60;84.90;;;;;;5020089;28;20555;-66
2021/06/11 07:01:26;;;;;;;12.85;11.07;;;26.70;84.60;;;;;;5020742;28;20505;-66
2021/06/11 07:03:56;;;;;;;15.30;12.23;;;26.80;85.00;;;;;;5021844;28;20052;-66
2021/06/11 07:06:24;;;;;;;13.75;12.23;;;26.90;84.80;;;;;;5024896;28;20064;-66
2021/06/11 07:08:51;;;;;;;15.85;13.02;;;26.80;82.50;;;;;;5021477;28;20052;-66
2021/06/11 07:11:19;;;;;;;15.98;12.60;;;26.60;81.60;;;;;;5021490;28;20137;-66
2021/06/11 07:13:48;;;;;;;13.95;12.50;;;26.40;82.50;;;;;;5021603;28;20042;-66
2021/06/11 07:16:15;;;;;;;16.23;14.10;;;26.20;83.60;;;;;;5023128;28;20075;-66
2021/06/11 07:18:42;;;;;;;15.85;14.15;;;26.10;83.90;;;;;;5023610;28;20949;-66
2021/06/11 07:21:11;;;;;;;16.10;13.38;;;26.10;85.00;;;;;;5023810;28;20135;-66
2021/06/11 07:23:42;;;;;;;15.53;13.93;;;26.20;84.20;;;;;;5020540;28;20499;-66
2021/06/11 07:26:12;;;;;;;17.40;15.60;;;26.20;83.80;;;;;;5022110;28;20165;-66
2021/06/11 07:28:43;;;;;;;18.10;16.20;;;26.10;83.40;;;;;;5021856;28;20053;-66
2021/06/11 07:31:10;;;;;;;19.15;16.45;;;26.00;83.90;;;;;;5022431;28;20033;-66
2021/06/11 07:33:39;;;;;;;17.30;15.43;;;26.00;85.70;;;;;;5023487;28;20128;-66
2021/06/11 07:36:05;;;;;;;16.85;14.82;;;26.20;85.80;;;;;;5022038;28;20040;-67
2021/06/11 07:38:35;;;;;;;17.20;13.90;;;26.30;85.40;;;;;;5022380;28;20091;-66
2021/06/11 07:41:06;;;;;;;18.00;15.50;;;26.30;83.80;;;;;;5021358;28;20102;-66
2021/06/11 07:43:33;;;;;;;17.77;15.88;;;26.20;83.80;;;;;;5022872;28;20052;-66
2021/06/11 07:46:01;;;;;;;15.48;13.88;;;26.00;85.30;;;;;;5025272;28;20069;-66
2021/06/11 07:48:29;;;;;;;18.52;14.80;;;26.10;85.50;;;;;;5024075;28;20049;-66
2021/06/11 07:51:01;;;;;;;17.70;15.93;;;26.10;84.60;;;;;;5023211;28;20038;-66
2021/06/11 07:53:29;;;;;;;17.30;15.40;;;26.10;85.30;;;;;;5021257;28;20080;-66
2021/06/11 07:56:02;;;;;;;16.88;14.38;;;26.10;84.80;;;;;;5007340;28;20052;-66
2021/06/11 07:58:48;;;;;;;23.05;16.25;;;26.20;85.70;;;;;;5019168;28;20048;-66
2021/06/11 08:01:16;;;;;;;17.10;15.30;;;26.30;84.70;;;;;;5021752;28;20824;-67
2021/06/11 08:04:02;;;;;;;16.58;14.82;;;26.40;86.40;;;;;;5035450;28;20042;-67
2021/06/11 08:06:48;;;;;;;16.67;15.02;;;26.50;85.60;;;;;;5018581;28;20499;-67
2021/06/11 08:09:14;;;;;;;16.75;15.05;;;26.50;86.00;;;;;;5050714;28;20045;-67
2021/06/11 08:11:42;;;;;;;16.10;14.10;;;26.50;86.20;;;;;;5052223;28;20128;-67
2021/06/11 08:14:09;;;;;;;20.60;14.40;;;26.50;85.30;;;;;;5022242;28;20124;-67
2021/06/11 08:16:35;;;;;;;16.33;14.60;;;26.40;84.90;;;;;;5020644;28;20041;-67
2021/06/11 08:19:02;;;;;;;17.98;13.25;;;26.40;85.20;;;;;;5021367;28;20123;-66
2021/06/11 08:21:34;;;;;;;18.17;15.15;;;26.40;86.00;;;;;;5022858;28;20043;-66
2021/06/11 08:24:00;;;;;;;17.63;13.23;;;26.40;85.30;;;;;;5022933;28;20037;-67
2021/06/11 08:26:46;;;;;;;15.50;13.35;;;26.40;85.60;;;;;;5020391;28;20049;-66
2021/06/11 08:29:32;;;;;;;15.48;13.82;;;26.50;86.60;;;;;;5046534;28;20045;-66
2021/06/11 08:32:00;;;;;;;22.38;13.23;;;26.70;87.50;;;;;;5022238;28;20443;-67
2021/06/11 08:34:28;;;;;;;15.95;11.90;;;26.50;85.60;;;;;;5021475;28;20319;-67
2021/06/11 08:36:55;;;;;;;14.23;12.00;;;26.60;85.50;;;;;;5021820;28;20044;-67
2021/06/11 08:39:22;;;;;;;15.25;11.75;;;26.70;85.30;;;;;;5021160;28;20135;-67
2021/06/11 08:41:48;;;;;;;13.35;11.98;;;26.90;85.80;;;;;;5021186;28;20124;-67
2021/06/11 08:44:15;;;;;;;14.82;13.25;;;27.10;82.50;;;;;;5022585;28;20080;-67
2021/06/11 08:46:46;;;;;;;15.07;12.50;;;27.10;83.20;;;;;;5021504;28;20057;-67
2021/06/11 08:49:12;;;;;;;16.70;12.02;;;27.10;82.70;;;;;;5021074;28;20042;-67
2021/06/11 08:51:41;;;;;;;12.57;10.88;;;27.10;84.20;;;;;;5021953;28;20054;-67
2021/06/11 08:54:07;;;;;;;13.00;11.07;;;27.20;82.20;;;;;;5020462;28;20042;-67
2021/06/11 08:56:35;;;;;;;11.65;10.23;;;27.10;82.00;;;;;;5020858;28;20037;-67
2021/06/11 08:59:01;;;;;;;11.45;9.38;;;27.00;80.30;;;;;;5021341;28;20128;-67
2021/06/11 09:01:32;;;;;;;11.52;10.35;;;26.80;82.50;;;;;;5021682;28;20896;-67
2021/06/11 09:03:59;;;;;;;12.07;10.75;;;26.70;82.70;;;;;;5021281;28;20041;-67
2021/06/11 09:06:27;;;;;;;13.23;11.13;;;26.50;83.40;;;;;;5020294;28;20041;-67
2021/06/11 09:09:08;;;;;;;12.88;9.82;;;26.50;83.70;;;;;;5020819;28;20052;-67
2021/06/11 09:11:50;;;;;;;11.70;9.88;;;26.50;84.20;;;;;;5021767;28;20048;-67
2021/06/11 09:14:57;;;;;;;10.38;8.52;;;26.50;83.60;;;;;;5019892;28;20052;-67
2021/06/11 09:17:53;;;;;;;13.73;9.82;;;26.60;84.00;;;;;;5020845;28;20041;-67
2021/06/11 09:20:23;;;;;;;72.55;10.70;;;26.60;85.00;;;;;;5003681;28;20164;-67
2021/06/11 09:22:52;;;;;;;12.73;7.18;;;26.60;84.50;;;;;;5022498;28;20164;-67
2021/06/11 09:25:41;;;;;;;11.63;8.10;;;26.50;84.30;;;;;;5044726;28;21849;-67
2021/06/11 09:28:24;;;;;;;14.15;8.05;;;26.60;84.20;;;;;;5020136;28;20053;-67
2021/06/11 09:31:02;;;;;;;8.57;7.78;;;26.50;85.00;;;;;;5019746;28;20585;-67
2021/06/11 09:33:41;;;;;;;12.80;8.90;;;26.30;86.30;;;;;;5019989;28;20064;-67
2021/06/11 09:36:13;;;;;;;12.80;11.18;;;26.40;86.30;;;;;;5020315;28;20603;-67
2021/06/11 09:38:44;;;;;;;13.77;10.68;;;26.60;85.00;;;;;;5020947;28;20041;-67
2021/06/11 09:41:11;;;;;;;12.88;9.88;;;26.70;82.70;;;;;;5021824;28;20629;-67
2021/06/11 09:43:56;;;;;;;11.43;10.25;;;26.70;84.20;;;;;;5018706;28;20120;-67
2021/06/11 09:46:22;;;;;;;11.70;10.52;;;26.80;85.40;;;;;;5035537;28;20061;-67
2021/06/11 09:48:51;;;;;;;12.98;11.63;;;27.10;85.10;;;;;;5022030;28;20047;-67
2021/06/11 09:51:18;;;;;;;15.05;12.18;;;27.30;82.50;;;;;;5021764;28;20045;-67
2021/06/11 09:53:46;;;;;;;17.15;9.93;;;27.20;82.70;;;;;;5022157;28;20045;-67
2021/06/11 09:56:23;;;;;;;11.43;9.18;;;27.10;82.40;;;;;;5020716;28;22115;-67
2021/06/11 09:58:50;;;;;;;14.27;10.32;;;27.20;84.50;;;;;;5020760;28;20072;-66
2021/06/11 10:01:17;;;;;;;19.90;15.02;;;27.40;83.60;;;;;;5020411;28;20049;-67
2021/06/11 10:03:48;;;;;;;18.73;12.68;;;27.50;81.30;;;;;;5021433;28;20048;-66
2021/06/11 10:06:19;;;;;;;17.52;11.65;;;27.50;83.70;;;;;;5019858;28;20044;-66
2021/06/11 10:08:48;;;;;;;17.80;12.05;;;27.50;80.60;;;;;;5018719;28;20050;-66
2021/06/11 10:11:21;;;;;;;10.23;8.50;;;27.70;81.70;;;;;;5020381;28;20068;-66
2021/06/11 10:13:48;;;;;;;13.50;9.38;;;27.90;81.50;;;;;;5020285;28;20129;-66
2021/06/11 10:16:16;;;;;;;12.55;10.32;;;27.90;81.30;;;;;;5020388;28;20034;-66
2021/06/11 10:18:42;;;;;;;13.50;10.10;;;27.90;81.30;;;;;;5019893;28;20074;-66
2021/06/11 10:21:09;;;;;;;16.05;10.80;;;27.90;82.30;;;;;;5022497;28;20041;-66
2021/06/11 10:23:37;;;;;;;14.13;10.98;;;27.80;81.10;;;;;;5025044;28;20041;-66
2021/06/11 10:26:04;;;;;;;14.45;10.95;;;27.90;78.80;;;;;;5023289;28;20041;-66
2021/06/11 10:28:46;;;;;;;11.13;6.70;;;27.90;80.60;;;;;;5023189;28;20044;-66
2021/06/11 10:31:15;;;;;;;9.20;8.30;;;27.90;77.10;;;;;;5024165;28;20038;-66
2021/06/11 10:33:43;;;;;;;23.88;11.07;;;27.90;78.40;;;;;;5020495;28;20465;-66
2021/06/11 10:36:29;;;;;;;14.63;10.80;;;28.00;79.00;;;;;;5020550;28;20041;-66
2021/06/11 10:38:55;;;;;;;18.25;13.88;;;27.90;78.00;;;;;;5023537;28;20893;-66
2021/06/11 10:41:22;;;;;;;17.08;14.32;;;27.90;78.70;;;;;;5026197;28;20030;-66
2021/06/11 10:43:48;;;;;;;14.85;13.40;;;27.90;79.90;;;;;;5023580;28;20045;-66
2021/06/11 10:46:22;;;;;;;14.60;13.20;;;28.10;81.80;;;;;;5024582;28;20045;-66
2021/06/11 10:48:56;;;;;;;39.83;14.50;;;28.10;79.70;;;;;;5024472;28;20514;-66
2021/06/11 10:51:43;;;;;;;19.00;14.45;;;28.00;79.20;;;;;;5021908;28;20144;-66
2021/06/11 10:54:27;;;;;;;16.20;13.10;;;27.80;79.40;;;;;;5022954;28;20041;-66
2021/06/11 10:56:56;;;;;;;14.60;13.10;;;27.80;78.60;;;;;;5021222;28;20045;-66
2021/06/11 10:59:36;;;;;;;12.85;10.57;;;27.60;77.90;;;;;;5022654;28;20045;-66
2021/06/11 11:02:03;;;;;;;11.20;10.10;;;27.50;79.70;;;;;;5028046;28;20215;-66
2021/06/11 11:04:32;;;;;;;11.10;10.00;;;27.30;81.30;;;;;;5020140;28;20113;-66
2021/06/11 11:07:18;;;;;;;13.32;8.85;;;27.40;82.40;;;;;;5021120;28;20052;-66
2021/06/11 11:10:04;;;;;;;12.18;10.85;;;27.60;81.90;;;;;;5022336;28;20095;-66
2021/06/11 11:12:57;;;;;;;11.35;8.23;;;27.60;79.90;;;;;;5023673;28;20044;-66
2021/06/11 11:15:43;;;;;;;10.40;8.32;;;27.60;80.40;;;;;;5024195;28;20477;-66
2021/06/11 11:18:14;;;;;;;11.48;8.65;;;27.70;79.40;;;;;;5022258;28;20048;-66
2021/06/11 11:20:42;;;;;;;10.27;7.32;;;27.60;78.80;;;;;;5024750;28;20061;-66
2021/06/11 11:23:11;;;;;;;11.30;6.95;;;27.40;79.70;;;;;;5021766;28;20487;-66
2021/06/11 11:25:38;;;;;;;14.05;5.50;;;27.30;80.50;;;;;;5023510;28;20044;-66
2021/06/11 11:28:06;;;;;;;16.20;5.13;;;27.10;80.50;;;;;;5024116;28;20160;-66
2021/06/11 11:30:33;;;;;;;5.88;4.03;;;26.90;80.30;;;;;;5024957;28;20104;-65
2021/06/11 11:33:00;;;;;;;7.35;6.45;;;26.80;80.90;;;;;;5023306;28;20389;-66
2021/06/11 11:35:28;;;;;;;8.65;6.43;;;26.50;80.30;;;;;;5024796;28;20128;-66
2021/06/11 11:37:55;;;;;;;6.22;5.63;;;26.40;83.00;;;;;;5023319;28;20079;-66
2021/06/11 11:40:25;;;;;;;9.45;6.05;;;26.40;84.50;;;;;;5022171;28;20255;-66
2021/06/11 11:42:53;;;;;;;14.02;6.88;;;26.50;84.50;;;;;;5021413;28;20042;-66
2021/06/11 11:45:19;;;;;;;10.23;8.90;;;26.40;83.20;;;;;;5037677;28;20091;-66
2021/06/11 11:47:46;;;;;;;10.65;7.45;;;26.30;83.30;;;;;;5023539;28;20156;-66
2021/06/11 11:50:12;;;;;;;11.35;9.30;;;26.20;84.20;;;;;;5021558;28;20041;-66
2021/06/11 11:52:39;;;;;;;10.00;7.50;;;26.00;81.40;;;;;;5023734;28;20123;-66
2021/06/11 11:55:06;;;;;;;9.82;7.05;;;25.90;82.70;;;;;;5021478;28;20037;-66
2021/06/11 11:57:32;;;;;;;13.05;7.35;;;25.80;83.60;;;;;;5021117;28;20046;-65
2021/06/11 12:00:01;;;;;;;9.50;7.20;;;25.80;84.00;;;;;;5020939;28;20049;-65
2021/06/11 12:02:28;;;;;;;14.63;8.38;;;26.00;86.20;;;;;;5021978;28;20029;-65
2021/06/11 12:04:56;;;;;;;18.85;9.65;;;26.40;86.10;;;;;;5020219;28;20095;-65
2021/06/11 12:07:23;;;;;;;14.48;12.98;;;26.70;83.80;;;;;;5021464;28;20245;-65
2021/06/11 12:09:51;;;;;;;13.35;11.65;;;26.90;84.80;;;;;;5021458;28;20491;-65
2021/06/11 12:12:17;;;;;;;15.30;10.65;;;27.10;84.20;;;;;;5022082;28;20118;-65
2021/06/11 12:14:43;;;;;;;11.55;9.93;;;27.40;86.30;;;;;;5024347;28;20495;-65
2021/06/11 12:17:11;;;;;;;13.82;9.23;;;27.60;85.20;;;;;;5023873;28;20041;-65
2021/06/11 12:19:37;;;;;;;11.80;10.60;;;27.90;84.50;;;;;;5022507;28;20120;-65
2021/06/11 12:22:03;;;;;;;12.32;11.05;;;28.20;82.70;;;;;;5025189;28;20132;-65
2021/06/11 12:24:30;;;;;;;11.20;9.85;;;28.20;79.60;;;;;;5021563;28;20037;-65
2021/06/11 12:27:01;;;;;;;13.32;12.02;;;28.00;80.00;;;;;;5022543;28;20034;-65
2021/06/11 12:29:27;;;;;;;15.63;13.50;;;27.90;81.60;;;;;;5023299;28;20418;-65
2021/06/11 12:31:54;;;;;;;10.75;9.80;;;28.00;81.50;;;;;;5023213;28;20049;-65
2021/06/11 12:34:20;;;;;;;15.82;8.68;;;28.20;82.60;;;;;;5022795;28;20037;-65
2021/06/11 12:36:46;;;;;;;11.80;7.97;;;28.20;78.30;;;;;;5023191;28;20037;-65
2021/06/11 12:39:12;;;;;;;8.68;7.75;;;28.20;79.20;;;;;;5021341;28;20052;-65
2021/06/11 12:41:39;;;;;;;9.85;6.32;;;28.20;76.80;;;;;;5023822;28;20037;-65